Terminal Aerodrome Forecast
Issued by NWS

Home | Current Version | Previous Version | Graphics & Text | Print | Product List | Glossary On
Versions: 1 2 3 4 5 6 7 8 9 10 11 12 13 14 15 16 17 18 19 20 21 22 23 24 25 26 27
000
FTUS43 KGRB 281457 CCA
TAFMTW
TAF COR
KMTW 281457Z 2815/2912 03006KT P6SM SCT025 SCT100
     FM281530 04007KT 1SM BR BKN005
      TEMPO 2816/2819 1/2SM FG BKN003
     FM282100 03008G15KT P6SM SCT012 SCT200
     FM282300 04007KT P6SM SCT100 SCT200=

USA.gov is the U.S. government's official web portal to all federal, state and local government web resources and services.